createdAt,value
2018-08-04T00:00:23.155Z,7.27
2018-08-04T00:02:53.973Z,7.27
2018-08-04T00:05:24.776Z,7.23
2018-08-04T00:07:55.561Z,7.03
2018-08-04T00:10:26.339Z,6.93
2018-08-04T00:12:57.071Z,10.03
2018-08-04T00:15:27.807Z,8.23
2018-08-04T00:17:58.603Z,7.30
2018-08-04T00:20:29.597Z,7.20
2018-08-04T00:23:00.411Z,7.60
2018-08-04T00:25:31.057Z,10.97
2018-08-04T00:28:01.921Z,7.53
2018-08-04T00:30:32.249Z,9.13
2018-08-04T00:33:02.898Z,8.50
2018-08-04T00:35:33.700Z,7.93
2018-08-04T00:38:04.583Z,8.20
2018-08-04T00:40:35.341Z,7.93
2018-08-04T00:43:06.105Z,9.00
2018-08-04T00:45:36.873Z,9.67
2018-08-04T00:48:07.627Z,9.87
2018-08-04T00:50:38.423Z,8.33
2018-08-04T00:53:08.642Z,8.17
2018-08-04T00:55:39.323Z,9.90
2018-08-04T00:58:10.154Z,9.73
2018-08-04T01:00:40.957Z,6.87
2018-08-04T01:03:11.637Z,9.10
2018-08-04T01:05:42.342Z,8.87
2018-08-04T01:08:13.164Z,7.80
2018-08-04T01:10:44.017Z,6.97
2018-08-04T01:13:14.717Z,10.70
2018-08-04T01:15:44.918Z,7.83
2018-08-04T01:18:15.163Z,9.47
2018-08-04T01:20:46.251Z,8.30
2018-08-04T01:23:17.147Z,8.40
2018-08-04T01:25:47.902Z,7.50
2018-08-04T01:28:18.725Z,8.20
2018-08-04T01:30:50.552Z,9.30
2018-08-04T01:33:21.445Z,8.30
2018-08-04T01:35:52.387Z,8.37
2018-08-04T01:38:23.222Z,8.23
2018-08-04T01:40:54.015Z,8.10
2018-08-04T01:43:24.797Z,10.23
2018-08-04T01:45:55.726Z,8.17
2018-08-04T01:48:26.665Z,12.77
2018-08-04T01:50:57.495Z,8.70
2018-08-04T01:53:28.357Z,7.83
2018-08-04T01:55:59.860Z,9.23
2018-08-04T01:58:30.629Z,12.00
2018-08-04T02:01:02.180Z,9.23
2018-08-04T02:03:33.031Z,8.37
2018-08-04T02:06:03.879Z,9.33
2018-08-04T02:08:34.713Z,7.63
2018-08-04T02:11:05.837Z,8.63
2018-08-04T02:13:36.781Z,11.47
2018-08-04T02:16:07.619Z,8.50
2018-08-04T02:18:38.461Z,9.57
2018-08-04T02:21:09.515Z,9.17
2018-08-04T02:23:40.513Z,8.93
2018-08-04T02:26:11.362Z,8.43
2018-08-04T02:28:42.249Z,10.60
2018-08-04T02:31:13.043Z,9.03
2018-08-04T02:33:43.791Z,11.87
2018-08-04T02:36:14.567Z,9.87
2018-08-04T02:38:45.357Z,9.93
2018-08-04T02:41:16.136Z,9.27
2018-08-04T02:43:46.997Z,9.20
2018-08-04T02:46:17.804Z,8.63
2018-08-04T02:48:48.628Z,9.03
2018-08-04T02:51:18.879Z,10.53
2018-08-04T02:53:49.626Z,8.83
2018-08-04T02:56:20.364Z,8.43
2018-08-04T02:58:51.154Z,9.00
2018-08-04T03:01:21.954Z,9.73
2018-08-04T03:03:52.844Z,9.63
2018-08-04T03:06:23.717Z,10.77
2018-08-04T03:08:54.519Z,8.40
2018-08-04T03:11:25.371Z,8.60
2018-08-04T03:13:56.124Z,8.77
2018-08-04T03:16:26.869Z,8.67
2018-08-04T03:19:00.537Z,9.53
2018-08-04T03:21:32.566Z,8.13
2018-08-04T03:24:03.066Z,10.27
2018-08-04T03:26:33.780Z,8.53
2018-08-04T03:29:04.597Z,8.67
2018-08-04T03:31:35.309Z,9.87
2018-08-04T03:34:06.236Z,8.53
2018-08-04T03:36:37.020Z,10.10
2018-08-04T03:39:11.320Z,8.77
2018-08-04T03:41:42.634Z,12.03
2018-08-04T03:44:13.381Z,10.47
2018-08-04T03:46:44.093Z,11.20
2018-08-04T03:49:14.869Z,11.27
2018-08-04T03:51:45.650Z,10.63
2018-08-04T03:54:16.367Z,9.93
2018-08-04T03:56:47.046Z,10.33
2018-08-04T03:59:17.767Z,11.07
2018-08-04T04:01:48.127Z,9.80
2018-08-04T04:04:19.790Z,10.63
2018-08-04T04:06:50.591Z,8.63
2018-08-04T04:09:21.344Z,9.73
2018-08-04T04:11:52.164Z,9.73
2018-08-04T04:14:22.938Z,8.90
2018-08-04T04:16:53.781Z,8.47
2018-08-04T04:19:25.834Z,9.50
2018-08-04T04:21:57.027Z,11.47
2018-08-04T04:24:27.979Z,7.80
2018-08-04T04:26:58.780Z,8.10
2018-08-04T04:29:29.485Z,8.97
2018-08-04T04:32:00.335Z,8.60
2018-08-04T04:34:31.241Z,13.30
2018-08-04T04:37:02.031Z,8.33
2018-08-04T04:39:32.849Z,9.97
2018-08-04T04:42:03.595Z,9.10
2018-08-04T04:44:34.464Z,9.13
2018-08-04T04:47:05.327Z,10.37
2018-08-04T04:49:37.240Z,9.97
2018-08-04T04:52:07.609Z,8.13
2018-08-04T04:54:38.320Z,8.27
2018-08-04T04:57:09.162Z,8.10
2018-08-04T04:59:40.033Z,10.80
2018-08-04T05:02:10.857Z,8.40
2018-08-04T05:04:41.748Z,8.97
2018-08-04T05:07:12.518Z,10.27
2018-08-04T05:09:43.263Z,7.70
2018-08-04T05:12:14.011Z,8.07
2018-08-04T05:14:44.694Z,8.50
2018-08-04T05:17:15.610Z,8.17
2018-08-04T05:19:46.403Z,8.80
2018-08-04T05:22:17.441Z,7.17
2018-08-04T05:24:48.680Z,7.20
2018-08-04T05:27:19.533Z,6.80
2018-08-04T05:29:50.350Z,7.03
2018-08-04T05:32:21.093Z,8.80
2018-08-04T05:34:51.867Z,8.50
2018-08-04T05:37:22.694Z,9.13
2018-08-04T05:39:53.508Z,8.53
2018-08-04T05:42:24.408Z,7.33
2018-08-04T05:44:55.281Z,7.00
2018-08-04T05:47:26.149Z,8.33
2018-08-04T05:49:56.992Z,7.83
2018-08-04T05:52:27.331Z,6.97
2018-08-04T05:54:58.229Z,9.33
2018-08-04T05:57:29.078Z,7.17
2018-08-04T05:59:59.889Z,9.03
2018-08-04T06:02:31.704Z,6.70
2018-08-04T06:05:02.381Z,7.83
2018-08-04T06:07:33.086Z,8.47
2018-08-04T06:10:03.930Z,7.50
2018-08-04T06:12:34.771Z,7.53
2018-08-04T06:15:05.541Z,8.03
2018-08-04T06:17:36.306Z,7.63
2018-08-04T06:20:07.158Z,10.33
2018-08-04T06:22:38.051Z,8.07
2018-08-04T06:25:08.813Z,7.23
2018-08-04T06:27:39.617Z,6.97
2018-08-04T06:30:12.488Z,7.40
2018-08-04T06:32:43.666Z,7.57
2018-08-04T06:35:14.470Z,9.40
2018-08-04T06:37:45.205Z,7.10
2018-08-04T06:40:16.034Z,6.77
2018-08-04T06:42:46.979Z,9.70
2018-08-04T06:45:17.730Z,7.27
2018-08-04T06:47:48.485Z,7.20
2018-08-04T06:50:18.760Z,9.50
2018-08-04T06:52:49.655Z,7.10
2018-08-04T06:55:21.818Z,6.97
2018-08-04T06:57:52.623Z,7.83
2018-08-04T07:00:23.293Z,7.07
2018-08-04T07:02:54.046Z,7.43
2018-08-04T07:05:24.889Z,6.97
2018-08-04T07:07:55.690Z,7.00
2018-08-04T07:10:26.364Z,7.33
2018-08-04T07:12:57.074Z,7.10
2018-08-04T07:15:27.839Z,9.30
2018-08-04T07:17:58.559Z,6.63
2018-08-04T07:20:29.250Z,6.83
2018-08-04T07:23:00.297Z,7.50
2018-08-04T07:25:31.152Z,9.00
2018-08-04T07:28:01.812Z,6.80
2018-08-04T07:30:32.623Z,6.93
2018-08-04T07:33:03.394Z,6.60
2018-08-04T07:35:34.189Z,6.63
2018-08-04T07:38:04.866Z,6.67
2018-08-04T07:40:35.620Z,7.47
2018-08-04T07:43:06.420Z,9.17
2018-08-04T07:45:37.136Z,6.77
2018-08-04T07:48:07.925Z,7.33
2018-08-04T07:50:38.766Z,10.63
2018-08-04T07:53:09.565Z,6.00
2018-08-04T07:55:40.284Z,6.57
2018-08-04T07:58:10.957Z,6.90
2018-08-04T08:00:41.677Z,6.13
2018-08-04T08:03:12.364Z,6.07
2018-08-04T08:05:43.135Z,6.33
2018-08-04T08:08:13.843Z,5.87
2018-08-04T08:10:44.575Z,6.15
2018-08-04T08:13:15.337Z,5.70
2018-08-04T08:15:46.111Z,5.73
2018-08-04T08:18:16.824Z,8.15
2018-08-04T08:20:47.156Z,5.60
2018-08-04T08:23:18.000Z,6.97
2018-08-04T08:26:04.456Z,6.00
2018-08-04T08:28:36.184Z,6.08
2018-08-04T08:31:06.957Z,6.00
2018-08-04T08:33:38.438Z,6.20
2018-08-04T08:36:09.856Z,6.37
2018-08-04T08:38:40.614Z,6.07
2018-08-04T08:41:11.465Z,6.57
2018-08-04T08:43:42.174Z,6.30
2018-08-04T08:46:12.918Z,6.40
2018-08-04T08:48:43.567Z,6.60
2018-08-04T08:51:14.320Z,9.40
2018-08-04T10:09:41.589Z,6.83
2018-08-04T10:12:13.275Z,7.20
2018-08-04T10:14:45.827Z,7.60
2018-08-04T10:17:20.587Z,7.20
2018-08-04T10:19:50.959Z,6.60
2018-08-04T10:22:23.448Z,6.67
2018-08-04T10:24:56.362Z,7.13
2018-08-04T10:27:30.989Z,8.97
2018-08-04T10:30:02.779Z,7.63
2018-08-04T10:32:34.645Z,6.80
2018-08-04T10:35:10.008Z,6.83
2018-08-04T10:37:44.867Z,6.03
2018-08-04T10:40:15.764Z,6.57
2018-08-04T10:42:46.556Z,6.80
2018-08-04T10:45:16.931Z,6.53
2018-08-04T10:47:47.745Z,6.20
2018-08-04T10:50:18.706Z,7.90
2018-08-04T10:52:50.267Z,6.63
2018-08-04T10:55:23.017Z,6.83
2018-08-04T10:57:54.713Z,6.93
2018-08-04T11:00:25.547Z,7.90
2018-08-04T11:02:56.370Z,7.37
2018-08-04T11:05:31.439Z,6.90
2018-08-04T11:08:03.436Z,8.03
2018-08-04T11:10:35.799Z,8.67
2018-08-04T11:13:07.012Z,7.57
2018-08-04T11:15:37.684Z,7.20
2018-08-04T11:18:10.046Z,6.43
2018-08-04T11:20:41.634Z,6.27
2018-08-04T11:23:13.434Z,6.27
2018-08-04T11:25:54.801Z,6.40
2018-08-04T11:28:25.716Z,7.57
2018-08-04T11:30:57.552Z,6.70
2018-08-04T11:33:29.318Z,6.80
2018-08-04T11:36:02.649Z,6.23
2018-08-04T11:38:33.917Z,6.97
2018-08-04T11:41:04.833Z,8.57
2018-08-04T11:43:36.919Z,6.63
2018-08-04T11:46:10.073Z,6.53
2018-08-04T11:48:40.996Z,7.00
2018-08-04T11:51:11.924Z,6.83
2018-08-04T11:53:42.881Z,6.83
2018-08-04T11:56:13.764Z,6.97
2018-08-04T11:58:44.879Z,5.97
2018-08-04T12:01:15.823Z,6.57
2018-08-04T12:03:46.766Z,8.27
2018-08-04T12:06:17.806Z,6.27
2018-08-04T12:08:48.873Z,7.00
2018-08-04T12:11:19.541Z,7.00
2018-08-04T12:13:50.474Z,6.70
2018-08-04T12:16:21.409Z,8.03
2018-08-04T12:18:52.412Z,6.97
2018-08-04T12:21:23.323Z,6.67
2018-08-04T12:23:54.267Z,6.97
2018-08-04T12:26:25.306Z,7.10
2018-08-04T12:28:56.338Z,7.27
2018-08-04T12:31:27.796Z,7.00
2018-08-04T12:33:58.709Z,8.17
2018-08-04T12:36:29.895Z,6.37
2018-08-04T12:39:01.732Z,7.00
2018-08-04T12:41:32.669Z,7.17
2018-08-04T12:44:03.731Z,23.53
2018-08-04T12:46:34.699Z,17.50
2018-08-04T12:49:07.305Z,6.90
2018-08-04T12:51:39.539Z,6.77
2018-08-04T12:54:11.112Z,6.40
2018-08-04T12:56:46.846Z,6.87
2018-08-04T12:59:21.222Z,6.70
2018-08-04T13:04:45.250Z,6.30
2018-08-04T13:09:56.537Z,6.20
2018-08-04T13:12:32.682Z,6.53
2018-08-04T13:15:12.341Z,8.00
2018-08-04T13:17:50.648Z,6.93
2018-08-04T13:20:31.956Z,6.40
2018-08-04T13:23:05.725Z,9.33
2018-08-04T13:25:42.817Z,8.63
2018-08-04T13:28:17.725Z,7.57
2018-08-04T13:31:03.145Z,7.07
2018-08-04T13:33:34.693Z,6.50
2018-08-04T13:36:05.794Z,6.20
2018-08-04T13:39:02.314Z,7.63
2018-08-04T13:41:33.291Z,7.87
2018-08-04T13:44:11.147Z,8.10
2018-08-04T13:46:42.855Z,6.90
2018-08-04T13:49:31.355Z,7.33
2018-08-04T13:52:07.201Z,9.17
2018-08-04T13:54:42.275Z,9.77
2018-08-04T13:57:13.372Z,7.87
2018-08-04T13:59:47.892Z,7.33
2018-08-04T14:02:18.888Z,8.60
2018-08-04T14:04:58.318Z,7.23
2018-08-04T14:07:31.120Z,7.93
2018-08-04T14:10:29.810Z,7.83
2018-08-04T14:13:09.446Z,7.43
2018-08-04T14:15:55.521Z,6.57
2018-08-04T14:18:47.608Z,8.10
2018-08-04T14:21:31.139Z,6.73
2018-08-04T14:24:02.151Z,7.03
2018-08-04T14:26:34.285Z,8.17
2018-08-04T14:39:25.119Z,6.33
2018-08-04T14:41:56.054Z,6.97
2018-08-04T14:44:27.047Z,6.50
2018-08-04T14:46:58.021Z,7.20
2018-08-04T19:07:23.562Z,11.63
2018-08-04T19:09:55.270Z,13.57
2018-08-04T19:12:27.105Z,12.63
2018-08-04T19:14:58.466Z,16.57
2018-08-04T19:17:29.459Z,17.00
2018-08-04T19:20:00.309Z,14.53
2018-08-04T19:22:32.529Z,13.53
2018-08-04T19:25:03.982Z,16.23
2018-08-04T19:27:34.990Z,13.33
2018-08-04T19:30:09.480Z,12.37
2018-08-04T19:32:53.967Z,12.00
2018-08-04T19:35:25.739Z,11.57
2018-08-04T19:38:02.487Z,11.83
2018-08-04T19:40:33.063Z,11.27
2018-08-04T19:43:07.890Z,11.13
2018-08-04T19:56:03.367Z,12.97
2018-08-04T19:58:38.083Z,13.83
2018-08-04T20:01:11.338Z,10.70
2018-08-04T20:03:54.494Z,13.73
2018-08-04T20:06:28.215Z,10.53
2018-08-04T20:08:59.643Z,10.20
2018-08-04T20:11:32.015Z,12.13
2018-08-04T20:14:26.551Z,12.13
2018-08-04T20:17:16.109Z,12.60
2018-08-04T20:19:59.985Z,12.37
